createdAt,value
2018-01-08T00:01:01.628Z,15.90
2018-01-08T00:03:27.841Z,14.80
2018-01-08T00:05:54.023Z,15.10
2018-01-08T00:08:20.988Z,15.73
2018-01-08T00:10:47.150Z,16.60
2018-01-08T00:13:13.360Z,15.50
2018-01-08T00:15:39.555Z,14.40
2018-01-08T00:18:06.504Z,15.23
2018-01-08T00:20:32.683Z,16.47
2018-01-08T00:22:58.851Z,16.67
2018-01-08T00:25:25.746Z,15.30
2018-01-08T00:27:51.902Z,15.43
2018-01-08T00:30:18.077Z,15.53
2018-01-08T00:32:44.236Z,16.07
2018-01-08T00:35:10.456Z,16.60
2018-01-08T00:37:36.746Z,14.90
2018-01-08T00:40:03.012Z,16.00
2018-01-08T00:42:29.199Z,16.97
2018-01-08T00:44:55.400Z,15.97
2018-01-08T00:47:21.590Z,15.67
2018-01-08T00:49:47.788Z,16.13
2018-01-08T00:52:13.938Z,16.27
2018-01-08T00:54:40.160Z,16.47
2018-01-08T00:57:06.368Z,17.33
2018-01-08T00:59:32.568Z,16.10
2018-01-08T01:01:58.826Z,15.60
2018-01-08T01:04:25.050Z,17.60
2018-01-08T01:06:51.276Z,15.77
2018-01-08T01:09:17.499Z,17.10
2018-01-08T01:11:44.406Z,16.47
2018-01-08T01:14:10.610Z,16.93
2018-01-08T01:16:36.795Z,16.67
2018-01-08T01:19:02.970Z,16.60
2018-01-08T01:21:29.238Z,15.80
2018-01-08T01:23:56.703Z,15.60
2018-01-08T01:26:23.671Z,16.70
2018-01-08T01:28:49.863Z,17.30
2018-01-08T01:31:16.018Z,16.33
2018-01-08T01:33:42.202Z,16.67
2018-01-08T01:36:08.404Z,17.33
2018-01-08T01:38:34.582Z,16.73
2018-01-08T01:41:01.535Z,16.33
2018-01-08T01:43:28.422Z,16.57
2018-01-08T01:45:54.672Z,17.17
2018-01-08T01:48:20.811Z,15.80
2018-01-08T01:50:47.031Z,15.60
2018-01-08T01:53:13.155Z,16.40
2018-01-08T01:55:39.346Z,16.00
2018-01-08T01:58:05.598Z,16.00
2018-01-08T02:00:31.799Z,15.93
2018-01-08T02:02:58.051Z,16.97
2018-01-08T02:05:24.251Z,17.13
2018-01-08T02:07:50.429Z,15.13
2018-01-08T02:10:16.672Z,15.00
2018-01-08T02:12:43.598Z,15.53
2018-01-08T02:15:09.847Z,15.70
2018-01-08T02:17:36.794Z,15.47
2018-01-08T02:20:03.702Z,15.60
2018-01-08T02:22:29.918Z,14.73
2018-01-08T02:24:56.119Z,14.70
2018-01-08T02:27:22.349Z,14.60
2018-01-08T02:29:48.478Z,15.40
2018-01-08T02:32:14.670Z,15.57
2018-01-08T02:34:41.574Z,15.50
2018-01-08T02:37:07.727Z,14.90
2018-01-08T02:39:33.893Z,14.93
2018-01-08T02:42:00.163Z,15.23
2018-01-08T02:44:27.053Z,15.47
2018-01-08T02:46:54.031Z,14.87
2018-01-08T02:49:20.209Z,16.17
2018-01-08T02:51:46.368Z,15.23
2018-01-08T02:54:12.594Z,14.53
2018-01-08T02:56:38.775Z,13.60
2018-01-08T02:59:04.953Z,15.20
2018-01-08T03:01:31.163Z,14.63
2018-01-08T03:03:58.171Z,15.60
2018-01-08T03:06:24.360Z,14.10
2018-01-08T03:08:50.615Z,14.37
2018-01-08T03:11:16.811Z,14.97
2018-01-08T03:13:43.044Z,14.40
2018-01-08T03:16:09.228Z,14.70
2018-01-08T03:18:35.464Z,14.17
2018-01-08T03:21:02.434Z,13.57
2018-01-08T03:23:28.595Z,13.80
2018-01-08T03:25:54.831Z,14.03
2018-01-08T03:28:21.051Z,13.40
2018-01-08T03:30:47.221Z,14.53
2018-01-08T03:33:14.182Z,14.93
2018-01-08T03:35:40.339Z,14.00
2018-01-08T03:38:06.462Z,12.97
2018-01-08T03:40:32.707Z,13.40
2018-01-08T03:42:58.911Z,13.60
2018-01-08T03:45:25.076Z,13.83
2018-01-08T03:47:51.287Z,13.00
2018-01-08T03:50:17.465Z,14.30
2018-01-08T03:52:44.446Z,13.33
2018-01-08T03:55:10.663Z,12.90
2018-01-08T03:57:36.921Z,13.50
2018-01-08T04:00:03.141Z,12.77
2018-01-08T04:02:29.311Z,14.00
2018-01-08T04:04:55.446Z,12.07
2018-01-08T04:07:22.428Z,13.73
2018-01-08T04:09:48.590Z,13.50
2018-01-08T04:12:14.807Z,14.00
2018-01-08T04:14:41.027Z,13.90
2018-01-08T04:17:07.259Z,13.40
2018-01-08T04:19:33.431Z,14.10
2018-01-08T04:22:00.339Z,13.33
2018-01-08T04:24:26.578Z,12.80
2018-01-08T04:26:52.830Z,12.87
2018-01-08T04:29:19.748Z,13.30
2018-01-08T04:31:45.973Z,13.17
2018-01-08T04:34:12.200Z,13.67
2018-01-08T04:36:38.455Z,13.17
2018-01-08T04:39:05.430Z,13.13
2018-01-08T04:41:31.621Z,13.37
2018-01-08T04:43:57.793Z,13.67
2018-01-08T04:46:23.997Z,12.97
2018-01-08T04:48:50.917Z,12.53
2018-01-08T04:51:17.098Z,11.47
2018-01-08T04:53:43.318Z,10.90
2018-01-08T04:56:09.600Z,13.60
2018-01-08T04:58:35.823Z,13.10
2018-01-08T05:01:02.042Z,12.50
2018-01-08T05:03:28.205Z,12.60
2018-01-08T05:05:55.154Z,12.53
2018-01-08T05:08:22.153Z,11.73
2018-01-08T05:10:48.329Z,11.77
2018-01-08T05:13:15.267Z,12.20
2018-01-08T05:15:42.254Z,11.77
2018-01-08T05:18:08.467Z,11.23
2018-01-08T05:20:34.611Z,10.60
2018-01-08T05:23:00.773Z,11.23
2018-01-08T05:25:26.951Z,11.80
2018-01-08T05:27:53.166Z,11.77
2018-01-08T05:30:19.432Z,11.27
2018-01-08T05:32:45.601Z,11.00
2018-01-08T05:35:11.799Z,11.57
2018-01-08T05:37:38.074Z,10.77
2018-01-08T05:40:04.959Z,10.40
2018-01-08T05:42:31.194Z,11.33
2018-01-08T05:44:57.382Z,10.70
2018-01-08T05:47:23.643Z,11.50
2018-01-08T05:49:49.818Z,11.20
2018-01-08T05:52:16.777Z,9.77
2018-01-08T05:54:43.714Z,10.83
2018-01-08T05:57:10.635Z,10.47
2018-01-08T05:59:36.826Z,11.23
2018-01-08T06:02:02.986Z,11.67
2018-01-08T06:04:29.224Z,11.33
2018-01-08T06:06:55.524Z,11.37
2018-01-08T06:09:21.744Z,11.20
2018-01-08T06:11:48.059Z,11.70
2018-01-08T06:14:14.270Z,11.27
2018-01-08T06:16:40.494Z,10.97
2018-01-08T06:19:06.636Z,12.33
2018-01-08T06:21:32.874Z,11.10
2018-01-08T06:23:59.143Z,11.37
2018-01-08T06:26:25.391Z,11.40
2018-01-08T06:28:52.315Z,10.53
2018-01-08T06:31:18.520Z,13.30
2018-01-08T06:33:44.700Z,11.67
2018-01-08T06:36:11.593Z,12.03
2018-01-08T06:38:37.738Z,10.40
2018-01-08T06:41:03.994Z,11.47
2018-01-08T06:43:30.927Z,11.20
2018-01-08T06:45:57.851Z,11.37
2018-01-08T06:48:24.016Z,12.77
2018-01-08T06:50:50.928Z,10.30
2018-01-08T06:53:17.145Z,11.73
2018-01-08T06:55:43.348Z,9.90
2018-01-08T06:58:09.670Z,11.10
2018-01-08T07:00:35.884Z,10.70
2018-01-08T07:03:02.846Z,11.33
2018-01-08T07:05:29.091Z,10.93
2018-01-08T07:07:55.304Z,12.00
2018-01-08T07:10:21.486Z,11.37
2018-01-08T07:12:47.700Z,10.90
2018-01-08T07:15:13.875Z,12.23
2018-01-08T07:17:40.050Z,11.67
2018-01-08T07:20:06.274Z,12.00
2018-01-08T07:22:32.441Z,11.50
2018-01-08T07:24:59.314Z,11.57
2018-01-08T07:27:25.620Z,11.73
2018-01-08T07:29:52.570Z,11.63
2018-01-08T07:32:18.786Z,12.13
2018-01-08T07:34:45.716Z,11.67
2018-01-08T07:37:11.914Z,10.90
2018-01-08T07:39:38.080Z,12.83
2018-01-08T07:42:05.073Z,12.30
2018-01-08T07:44:31.268Z,12.20
2018-01-08T07:46:58.214Z,11.87
2018-01-08T07:49:24.456Z,13.00
2018-01-08T07:51:50.686Z,13.23
2018-01-08T07:54:16.848Z,13.30
2018-01-08T07:56:43.090Z,12.70
2018-01-08T07:59:09.230Z,13.07
2018-01-08T08:01:35.387Z,12.60
2018-01-08T08:04:01.654Z,11.60
2018-01-08T08:06:27.881Z,12.60
2018-01-08T08:08:54.122Z,12.40
2018-01-08T08:11:20.307Z,11.90
2018-01-08T08:13:46.517Z,13.33
2018-01-08T08:16:13.483Z,11.47
2018-01-08T08:18:39.686Z,11.50
2018-01-08T08:21:06.717Z,12.93
2018-01-08T08:23:33.707Z,12.87
2018-01-08T08:25:59.978Z,12.10
2018-01-08T08:28:26.147Z,12.63
2018-01-08T08:30:52.370Z,11.20
2018-01-08T08:33:19.322Z,12.43
2018-01-08T08:35:45.475Z,12.40
2018-01-08T08:38:11.634Z,13.03
2018-01-08T08:40:37.787Z,11.37
2018-01-08T08:43:04.788Z,12.90
2018-01-08T08:45:30.995Z,11.67
2018-01-08T08:47:57.252Z,11.57
2018-01-08T08:50:23.431Z,11.77
2018-01-08T08:52:50.463Z,12.60
2018-01-08T08:55:17.363Z,12.40
2018-01-08T08:57:43.594Z,12.33
2018-01-08T09:00:09.859Z,11.73
2018-01-08T09:02:36.796Z,11.50
2018-01-08T09:05:03.010Z,11.60
2018-01-08T09:07:29.248Z,10.80
2018-01-08T09:09:55.423Z,11.97
2018-01-08T09:12:21.583Z,12.03
2018-01-08T09:14:47.837Z,11.37
2018-01-08T09:17:14.838Z,11.70
2018-01-08T09:19:41.010Z,11.47
2018-01-08T09:22:08.251Z,11.50
2018-01-08T09:24:34.487Z,11.77
2018-01-08T09:27:00.659Z,11.87
2018-01-08T09:29:26.910Z,10.50
2018-01-08T09:31:53.082Z,11.03
2018-01-08T09:34:19.967Z,12.40
2018-01-08T09:36:46.171Z,10.93
2018-01-08T09:39:13.115Z,12.03
2018-01-08T09:41:40.010Z,12.03
2018-01-08T09:44:06.204Z,11.33
2018-01-08T09:46:32.382Z,12.77
2018-01-08T09:48:58.535Z,11.30
2018-01-08T09:51:25.503Z,10.00
2018-01-08T09:53:51.711Z,11.27
2018-01-08T09:56:18.676Z,10.33
2018-01-08T09:58:44.905Z,9.77
2018-01-08T10:01:11.102Z,11.50
2018-01-08T10:03:50.318Z,10.43
2018-01-08T10:06:28.810Z,10.07
2018-01-08T10:09:07.217Z,10.57
2018-01-08T10:11:45.500Z,11.13
2018-01-08T10:14:24.019Z,11.23
2018-01-08T10:17:02.410Z,10.50
2018-01-08T10:22:32.210Z,10.23
2018-01-08T10:24:58.447Z,9.93
2018-01-08T10:27:24.669Z,9.83
2018-01-08T10:29:50.892Z,10.17
2018-01-08T10:32:17.125Z,9.10
2018-01-08T10:34:43.327Z,10.10
2018-01-08T10:37:09.546Z,10.13
2018-01-08T10:39:35.858Z,9.90
2018-01-08T10:42:08.347Z,9.20
2018-01-08T10:44:40.644Z,9.80
2018-01-08T10:47:12.998Z,10.53
2018-01-08T10:49:45.458Z,10.17
2018-01-08T10:52:11.611Z,8.50
2018-01-08T10:54:37.860Z,9.17
2018-01-08T10:57:04.092Z,9.30
2018-01-08T10:59:30.238Z,9.17
2018-01-08T11:02:03.306Z,8.53
2018-01-08T11:04:29.586Z,9.43
2018-01-08T11:06:55.726Z,9.27
2018-01-08T11:09:21.908Z,9.70
2018-01-08T11:11:48.060Z,8.37
2018-01-08T11:14:14.296Z,8.40
2018-01-08T11:16:40.472Z,8.83
2018-01-08T11:19:06.653Z,9.37
2018-01-08T11:21:32.902Z,8.77
2018-01-08T11:23:59.102Z,9.27
2018-01-08T11:26:25.331Z,8.33
2018-01-08T11:28:51.516Z,8.33
2018-01-08T11:31:17.711Z,7.97
2018-01-08T11:33:43.879Z,8.83
2018-01-08T11:36:10.143Z,8.60
2018-01-08T11:38:36.383Z,8.83
2018-01-08T11:41:02.664Z,7.80
2018-01-08T11:43:28.963Z,8.83
2018-01-08T11:45:55.190Z,9.20
2018-01-08T11:48:21.470Z,8.00
2018-01-08T11:50:48.407Z,8.60
2018-01-08T11:53:15.386Z,8.80
2018-01-08T11:55:41.650Z,9.90
2018-01-08T11:58:07.882Z,9.43
2018-01-08T12:00:34.070Z,8.83
2018-01-08T12:03:00.249Z,9.37
2018-01-08T12:05:26.555Z,12.40
2018-01-08T12:07:52.842Z,14.30
2018-01-08T12:10:19.094Z,9.50
2018-01-08T12:12:45.304Z,8.37
2018-01-08T12:15:11.640Z,8.63
2018-01-08T12:17:37.811Z,9.10
2018-01-08T12:20:04.037Z,8.17
2018-01-08T12:22:30.304Z,9.30
2018-01-08T12:24:57.291Z,8.43
2018-01-08T12:27:23.554Z,9.17
2018-01-08T12:29:49.745Z,8.80
2018-01-08T12:32:15.971Z,8.50
2018-01-08T12:34:42.206Z,8.50
2018-01-08T12:37:08.463Z,8.77
2018-01-08T12:39:34.714Z,8.40
2018-01-08T12:42:01.632Z,8.20
2018-01-08T12:44:27.865Z,7.93
2018-01-08T12:46:54.031Z,8.90
2018-01-08T12:49:20.368Z,8.27
2018-01-08T12:51:46.620Z,8.07
2018-01-08T12:54:12.858Z,8.10
2018-01-08T12:56:39.057Z,7.20
2018-01-08T12:59:05.286Z,7.23
2018-01-08T13:01:31.523Z,7.33
2018-01-08T13:03:57.792Z,7.27
2018-01-08T13:06:24.135Z,7.70
2018-01-08T13:08:51.176Z,7.70
2018-01-08T13:11:17.540Z,8.30
2018-01-08T13:13:43.718Z,7.70
2018-01-08T13:16:09.942Z,7.77
2018-01-08T13:18:36.222Z,7.83
2018-01-08T13:21:03.191Z,8.13
2018-01-08T13:23:29.411Z,7.30
2018-01-08T13:25:55.608Z,8.00
2018-01-08T13:28:21.851Z,7.20
2018-01-08T13:30:48.139Z,7.90
2018-01-08T13:33:14.434Z,7.97
2018-01-08T13:35:40.724Z,7.10
2018-01-08T13:38:07.694Z,7.23
2018-01-08T13:40:33.945Z,7.57
2018-01-08T13:43:00.184Z,7.83
2018-01-08T13:45:26.481Z,8.03
2018-01-08T13:47:52.739Z,7.40
2018-01-08T13:50:18.978Z,7.93
2018-01-08T13:52:45.246Z,7.93
2018-01-08T13:55:12.199Z,8.33
2018-01-08T13:57:39.183Z,8.07
2018-01-08T14:00:05.400Z,8.50
2018-01-08T14:02:31.623Z,8.20
2018-01-08T14:04:57.897Z,8.13
2018-01-08T14:07:24.156Z,8.70
2018-01-08T14:09:51.107Z,7.40
2018-01-08T14:12:18.048Z,7.40
2018-01-08T14:14:45.008Z,7.60
2018-01-08T14:17:11.268Z,8.17
2018-01-08T14:19:37.477Z,8.03
2018-01-08T14:22:03.666Z,7.40
2018-01-08T14:24:29.893Z,7.10
2018-01-08T14:26:56.161Z,6.97
2018-01-08T14:29:22.366Z,7.43
2018-01-08T14:31:49.343Z,6.97
2018-01-08T14:34:15.611Z,7.30
2018-01-08T14:36:41.766Z,7.30
2018-01-08T14:39:08.719Z,6.93
2018-01-08T14:41:35.768Z,7.13
2018-01-08T14:44:01.990Z,7.80
2018-01-08T14:46:28.937Z,7.40
2018-01-08T14:48:55.902Z,7.53
2018-01-08T14:51:22.119Z,6.47
2018-01-08T14:53:49.060Z,7.13
2018-01-08T14:56:15.989Z,7.40
2018-01-08T14:58:42.161Z,7.07
2018-01-08T15:01:08.393Z,6.33
2018-01-08T15:03:34.625Z,7.03
2018-01-08T15:06:00.824Z,7.40
2018-01-08T15:08:27.015Z,8.30
2018-01-08T15:10:54.038Z,7.33
2018-01-08T15:13:20.186Z,6.70
2018-01-08T15:15:46.506Z,7.43
2018-01-08T15:18:12.685Z,8.20
2018-01-08T15:20:38.910Z,7.07
2018-01-08T15:23:05.175Z,6.73
2018-01-08T15:25:31.464Z,7.00
2018-01-08T15:27:58.447Z,6.43
2018-01-08T15:30:24.638Z,6.90
2018-01-08T15:32:51.530Z,7.33
2018-01-08T15:35:17.692Z,7.33
2018-01-08T15:40:09.457Z,6.97
2018-01-08T15:42:35.656Z,6.90
2018-01-08T15:45:01.823Z,6.70
2018-01-08T15:47:28.050Z,7.60
2018-01-08T15:49:54.214Z,6.97
2018-01-08T15:52:20.450Z,7.73
2018-01-08T15:54:47.409Z,6.93
2018-01-08T15:57:13.597Z,6.20
2018-01-08T15:59:39.820Z,6.00
2018-01-08T16:02:06.028Z,6.40
2018-01-08T16:04:32.282Z,6.10
2018-01-08T16:06:58.507Z,6.80
2018-01-08T16:09:24.764Z,6.53
2018-01-08T16:11:50.971Z,6.40
2018-01-08T16:14:17.184Z,6.60
2018-01-08T16:16:43.394Z,6.90
2018-01-08T16:19:09.591Z,6.30
2018-01-08T16:21:35.724Z,6.70
2018-01-08T16:24:01.900Z,7.37
2018-01-08T16:26:28.092Z,8.27
2018-01-08T16:28:55.000Z,7.67
2018-01-08T16:31:21.231Z,6.93
2018-01-08T16:33:47.375Z,7.57
2018-01-08T16:36:13.540Z,7.20
2018-01-08T16:38:39.732Z,7.57
2018-01-08T16:41:05.970Z,7.67
2018-01-08T16:43:32.908Z,8.20
2018-01-08T16:45:59.927Z,8.00
2018-01-08T16:48:26.187Z,7.70
2018-01-08T16:50:53.186Z,8.77
2018-01-08T16:53:19.335Z,8.57
2018-01-08T16:55:45.536Z,9.10
2018-01-08T16:58:11.734Z,8.60
2018-01-08T17:00:37.908Z,9.30
2018-01-08T17:03:04.160Z,8.97
2018-01-08T17:05:30.483Z,8.20
2018-01-08T17:07:56.672Z,8.10
2018-01-08T17:10:22.893Z,8.50
2018-01-08T17:12:49.107Z,9.10
2018-01-08T17:15:15.352Z,8.27
2018-01-08T17:17:41.598Z,9.20
2018-01-08T17:20:07.776Z,8.00
2018-01-08T17:22:34.741Z,9.40
2018-01-08T17:25:01.003Z,8.53
2018-01-08T17:27:27.287Z,8.10
2018-01-08T17:29:53.500Z,8.40
2018-01-08T17:32:20.440Z,8.13
2018-01-08T17:34:46.669Z,7.93
2018-01-08T17:37:13.628Z,7.33
2018-01-08T17:39:40.578Z,9.03
2018-01-08T17:42:06.811Z,7.73
2018-01-08T17:44:32.998Z,7.60
2018-01-08T17:46:59.228Z,8.60
2018-01-08T17:49:25.467Z,7.23
2018-01-08T17:51:51.674Z,7.03
2018-01-08T17:54:17.911Z,7.80
2018-01-08T17:56:44.098Z,8.30
2018-01-08T17:59:10.296Z,8.50
2018-01-08T18:01:37.274Z,9.20
2018-01-08T18:04:03.579Z,8.83
2018-01-08T18:06:29.841Z,8.93
2018-01-08T18:08:56.006Z,8.50
2018-01-08T18:11:22.495Z,9.00
2018-01-08T18:13:48.734Z,8.40
2018-01-08T18:16:15.354Z,9.60
2018-01-08T18:18:42.401Z,8.30
2018-01-08T18:21:08.622Z,8.40
2018-01-08T18:23:36.104Z,7.90
2018-01-08T18:26:03.143Z,10.43
2018-01-08T18:28:29.350Z,8.50
2018-01-08T18:30:55.836Z,7.57
2018-01-08T18:33:22.129Z,8.37
2018-01-08T18:35:48.341Z,8.30
2018-01-08T18:38:14.555Z,9.30
2018-01-08T18:40:41.498Z,9.47
2018-01-08T18:43:08.444Z,10.80
2018-01-08T18:45:35.358Z,11.80
2018-01-08T18:48:01.527Z,8.20
2018-01-08T18:50:28.425Z,7.90
2018-01-08T18:52:54.667Z,8.50
2018-01-08T18:55:20.842Z,7.67
2018-01-08T18:57:47.245Z,8.10
2018-01-08T19:00:14.223Z,7.50
2018-01-08T19:02:40.479Z,9.45
2018-01-08T19:05:06.677Z,9.60
2018-01-08T19:07:32.998Z,7.80
2018-01-08T19:09:59.294Z,11.77
2018-01-08T19:12:25.553Z,10.57
2018-01-08T19:14:51.862Z,9.20
2018-01-08T19:17:18.130Z,9.10
2018-01-08T19:19:44.305Z,9.63
2018-01-08T19:22:10.538Z,8.10
2018-01-08T19:24:36.748Z,8.50
2018-01-08T19:27:03.135Z,8.90
2018-01-08T19:29:29.383Z,8.73
2018-01-08T19:31:55.560Z,8.50
2018-01-08T19:34:22.146Z,7.80
2018-01-08T19:36:48.388Z,8.60
2018-01-08T19:39:14.627Z,8.63
2018-01-08T19:41:40.830Z,8.97
2018-01-08T19:44:07.022Z,9.30
2018-01-08T19:46:33.937Z,8.30
2018-01-08T19:49:00.164Z,9.03
2018-01-08T19:51:26.420Z,9.60
2018-01-08T19:53:53.430Z,8.50
2018-01-08T19:56:19.648Z,8.57
2018-01-08T19:58:45.880Z,8.33
2018-01-08T20:01:12.432Z,8.23
2018-01-08T20:03:38.617Z,8.77
2018-01-08T20:06:05.623Z,8.40
2018-01-08T20:08:32.254Z,8.00
2018-01-08T20:10:58.427Z,7.90
2018-01-08T20:13:24.639Z,8.97
2018-01-08T20:15:50.907Z,7.53
2018-01-08T20:18:17.111Z,9.67
2018-01-08T20:20:43.447Z,8.40
2018-01-08T20:23:09.698Z,8.90
2018-01-08T20:25:35.896Z,8.40
2018-01-08T20:28:02.368Z,8.50
2018-01-08T20:30:28.565Z,8.50
2018-01-08T20:32:54.789Z,8.37
2018-01-08T20:35:21.009Z,8.50
2018-01-08T20:37:47.252Z,8.53
2018-01-08T20:40:13.512Z,8.60
2018-01-08T20:42:39.703Z,7.33
2018-01-08T20:45:05.926Z,8.10
2018-01-08T20:47:32.700Z,7.87
2018-01-08T20:49:58.987Z,9.00
2018-01-08T20:52:25.262Z,8.50
2018-01-08T20:54:51.481Z,7.50
2018-01-08T20:57:17.685Z,8.67
2018-01-08T20:59:43.853Z,9.47
2018-01-08T21:02:10.006Z,10.83
2018-01-08T21:04:36.374Z,12.70
2018-01-08T21:07:02.637Z,8.83
2018-01-08T21:09:28.835Z,11.60
2018-01-08T21:11:55.336Z,9.57
2018-01-08T21:14:21.579Z,8.97
2018-01-08T21:16:47.828Z,8.17
2018-01-08T21:19:14.028Z,7.50
2018-01-08T21:21:40.959Z,8.70
2018-01-08T21:24:07.377Z,8.53
2018-01-08T21:26:33.610Z,8.57
2018-01-08T21:28:59.810Z,7.60
2018-01-08T21:31:26.621Z,7.60
2018-01-08T21:33:52.851Z,8.60
2018-01-08T21:36:19.040Z,8.40
2018-01-08T21:38:45.201Z,7.13
2018-01-08T21:41:11.456Z,8.07
2018-01-08T21:43:37.628Z,7.87
2018-01-08T21:46:03.883Z,7.47
2018-01-08T21:48:30.082Z,7.80
2018-01-08T21:50:56.494Z,7.60
2018-01-08T21:53:22.709Z,6.90
2018-01-08T21:55:48.909Z,6.93
2018-01-08T21:58:15.619Z,7.20
2018-01-08T22:00:42.578Z,6.90
2018-01-08T22:03:08.788Z,6.60
2018-01-08T22:05:35.763Z,7.50
2018-01-08T22:08:01.986Z,7.50
2018-01-08T22:10:28.190Z,6.83
2018-01-08T22:12:55.089Z,7.53
2018-01-08T22:15:21.281Z,7.90
2018-01-08T22:17:47.467Z,7.20
2018-01-08T22:20:13.671Z,7.37
2018-01-08T22:22:39.868Z,6.93
2018-01-08T22:25:06.077Z,8.00
2018-01-08T22:27:33.048Z,7.47
2018-01-08T22:29:59.252Z,7.87
2018-01-08T22:32:26.214Z,7.87
2018-01-08T22:34:52.353Z,7.37
2018-01-08T22:37:18.583Z,7.20
2018-01-08T22:39:44.729Z,7.87
2018-01-08T22:42:10.943Z,7.87
2018-01-08T22:44:37.107Z,7.23
2018-01-08T22:47:03.274Z,7.03
2018-01-08T22:49:30.201Z,7.50
2018-01-08T22:51:57.149Z,7.80
2018-01-08T22:54:24.042Z,7.17
2018-01-08T22:56:50.296Z,7.60
2018-01-08T22:59:16.485Z,8.20
2018-01-08T23:01:42.620Z,7.47
2018-01-08T23:04:08.841Z,7.47
2018-01-08T23:06:35.052Z,8.43
2018-01-08T23:09:01.249Z,7.63
2018-01-08T23:11:28.231Z,8.20
2018-01-08T23:13:54.437Z,7.73
2018-01-08T23:16:21.342Z,8.40
2018-01-08T23:18:47.594Z,8.00
2018-01-08T23:21:13.776Z,9.50
2018-01-08T23:23:39.931Z,8.30
2018-01-08T23:26:06.123Z,9.00
2018-01-08T23:28:32.346Z,8.40
2018-01-08T23:30:58.521Z,8.87
2018-01-08T23:33:24.676Z,8.60
2018-01-08T23:35:51.620Z,8.10
2018-01-08T23:38:18.588Z,7.57
2018-01-08T23:40:44.785Z,9.40
2018-01-08T23:43:10.977Z,8.03
2018-01-08T23:45:37.155Z,7.70
2018-01-08T23:48:03.359Z,8.40
2018-01-08T23:50:29.534Z,8.73
2018-01-08T23:52:55.801Z,8.67
2018-01-08T23:55:22.031Z,8.90
2018-01-08T23:57:48.235Z,8.20
